sensor_id;sensor_type;location;lat;lon;timestamp;P1;durP1;ratioP1;P2;durP2;ratioP2
74064;SDS011;62421;51.412;5.432;2023-04-23T00:02:06;44.37;;;23.33;;
74064;SDS011;62421;51.412;5.432;2023-04-23T00:04:33;45.97;;;24.75;;
74064;SDS011;62421;51.412;5.432;2023-04-23T00:07:01;46.33;;;23.02;;
74064;SDS011;62421;51.412;5.432;2023-04-23T00:09:29;48.67;;;24.55;;
74064;SDS011;62421;51.412;5.432;2023-04-23T00:11:58;42.92;;;22.80;;
74064;SDS011;62421;51.412;5.432;2023-04-23T00:14:25;42.73;;;23.17;;
74064;SDS011;62421;51.412;5.432;2023-04-23T00:16:51;41.25;;;22.13;;
74064;SDS011;62421;51.412;5.432;2023-04-23T00:19:17;41.40;;;22.03;;
74064;SDS011;62421;51.412;5.432;2023-04-23T00:21:42;44.17;;;23.33;;
74064;SDS011;62421;51.412;5.432;2023-04-23T00:24:08;41.60;;;21.70;;
74064;SDS011;62421;51.412;5.432;2023-04-23T00:26:33;44.47;;;22.93;;
74064;SDS011;62421;51.412;5.432;2023-04-23T00:28:58;44.60;;;23.13;;
74064;SDS011;62421;51.412;5.432;2023-04-23T00:31:24;42.93;;;21.77;;
74064;SDS011;62421;51.412;5.432;2023-04-23T00:33:51;37.78;;;21.52;;
74064;SDS011;62421;51.412;5.432;2023-04-23T00:36:17;39.80;;;21.60;;
74064;SDS011;62421;51.412;5.432;2023-04-23T00:38:42;37.63;;;21.10;;
74064;SDS011;62421;51.412;5.432;2023-04-23T00:41:08;42.90;;;22.30;;
74064;SDS011;62421;51.412;5.432;2023-04-23T00:43:33;38.87;;;21.70;;
74064;SDS011;62421;51.412;5.432;2023-04-23T00:45:59;40.92;;;21.58;;
74064;SDS011;62421;51.412;5.432;2023-04-23T00:48:24;37.57;;;20.93;;
74064;SDS011;62421;51.412;5.432;2023-04-23T00:50:56;42.73;;;22.43;;
74064;SDS011;62421;51.412;5.432;2023-04-23T00:53:31;47.85;;;23.63;;
74064;SDS011;62421;51.412;5.432;2023-04-23T00:55:58;43.45;;;22.45;;
74064;SDS011;62421;51.412;5.432;2023-04-23T00:58:25;42.28;;;22.48;;
74064;SDS011;62421;51.412;5.432;2023-04-23T01:00:51;46.17;;;22.30;;
74064;SDS011;62421;51.412;5.432;2023-04-23T01:03:17;43.40;;;22.88;;
74064;SDS011;62421;51.412;5.432;2023-04-23T01:05:45;38.87;;;21.87;;
74064;SDS011;62421;51.412;5.432;2023-04-23T01:08:13;48.63;;;24.55;;
74064;SDS011;62421;51.412;5.432;2023-04-23T01:10:43;47.45;;;23.27;;
74064;SDS011;62421;51.412;5.432;2023-04-23T01:13:11;43.30;;;22.63;;
74064;SDS011;62421;51.412;5.432;2023-04-23T01:15:37;44.88;;;23.52;;
74064;SDS011;62421;51.412;5.432;2023-04-23T01:18:02;43.40;;;24.33;;
74064;SDS011;62421;51.412;5.432;2023-04-23T01:20:28;48.40;;;23.43;;
74064;SDS011;62421;51.412;5.432;2023-04-23T01:22:54;45.85;;;22.83;;
74064;SDS011;62421;51.412;5.432;2023-04-23T01:25:20;45.30;;;23.42;;
74064;SDS011;62421;51.412;5.432;2023-04-23T01:27:46;39.53;;;22.48;;
74064;SDS011;62421;51.412;5.432;2023-04-23T01:30:12;43.72;;;23.30;;
74064;SDS011;62421;51.412;5.432;2023-04-23T01:32:38;43.72;;;23.85;;
74064;SDS011;62421;51.412;5.432;2023-04-23T01:35:04;42.63;;;23.35;;
74064;SDS011;62421;51.412;5.432;2023-04-23T01:37:31;39.70;;;21.73;;
74064;SDS011;62421;51.412;5.432;2023-04-23T01:39:57;43.13;;;22.75;;
74064;SDS011;62421;51.412;5.432;2023-04-23T01:42:23;40.47;;;22.73;;
74064;SDS011;62421;51.412;5.432;2023-04-23T01:44:48;39.00;;;22.20;;
74064;SDS011;62421;51.412;5.432;2023-04-23T01:47:14;43.13;;;22.87;;
74064;SDS011;62421;51.412;5.432;2023-04-23T01:49:40;40.58;;;22.02;;
74064;SDS011;62421;51.412;5.432;2023-04-23T01:52:06;40.63;;;21.93;;
74064;SDS011;62421;51.412;5.432;2023-04-23T01:54:31;37.37;;;21.77;;
74064;SDS011;62421;51.412;5.432;2023-04-23T01:56:56;40.27;;;22.90;;
74064;SDS011;62421;51.412;5.432;2023-04-23T01:59:22;41.88;;;23.20;;
74064;SDS011;62421;51.412;5.432;2023-04-23T02:01:48;35.67;;;21.53;;
74064;SDS011;62421;51.412;5.432;2023-04-23T02:04:14;41.30;;;21.05;;
74064;SDS011;62421;51.412;5.432;2023-04-23T02:06:41;42.45;;;21.85;;
74064;SDS011;62421;51.412;5.432;2023-04-23T02:09:08;38.03;;;21.65;;
74064;SDS011;62421;51.412;5.432;2023-04-23T02:11:33;40.03;;;21.77;;
74064;SDS011;62421;51.412;5.432;2023-04-23T02:14:00;40.37;;;21.77;;
74064;SDS011;62421;51.412;5.432;2023-04-23T02:16:26;40.15;;;22.25;;
74064;SDS011;62421;51.412;5.432;2023-04-23T02:18:52;43.10;;;22.50;;
74064;SDS011;62421;51.412;5.432;2023-04-23T02:21:19;41.27;;;22.57;;
74064;SDS011;62421;51.412;5.432;2023-04-23T02:23:45;43.13;;;23.50;;
74064;SDS011;62421;51.412;5.432;2023-04-23T02:26:11;41.50;;;22.60;;
74064;SDS011;62421;51.412;5.432;2023-04-23T02:28:36;40.25;;;22.13;;
74064;SDS011;62421;51.412;5.432;2023-04-23T02:31:01;39.10;;;21.98;;
74064;SDS011;62421;51.412;5.432;2023-04-23T02:33:27;39.47;;;21.83;;
74064;SDS011;62421;51.412;5.432;2023-04-23T02:35:52;40.10;;;21.73;;
74064;SDS011;62421;51.412;5.432;2023-04-23T02:38:18;40.70;;;21.83;;
74064;SDS011;62421;51.412;5.432;2023-04-23T02:40:43;37.60;;;21.90;;
74064;SDS011;62421;51.412;5.432;2023-04-23T02:43:08;38.70;;;21.55;;
74064;SDS011;62421;51.412;5.432;2023-04-23T02:45:34;35.73;;;20.70;;
74064;SDS011;62421;51.412;5.432;2023-04-23T02:47:59;38.03;;;21.97;;
74064;SDS011;62421;51.412;5.432;2023-04-23T02:50:25;35.67;;;20.60;;
74064;SDS011;62421;51.412;5.432;2023-04-23T02:52:50;40.00;;;22.53;;
74064;SDS011;62421;51.412;5.432;2023-04-23T02:55:15;36.73;;;22.00;;
74064;SDS011;62421;51.412;5.432;2023-04-23T02:57:41;39.10;;;20.90;;
74064;SDS011;62421;51.412;5.432;2023-04-23T03:00:07;37.10;;;20.55;;
74064;SDS011;62421;51.412;5.432;2023-04-23T03:02:33;35.67;;;21.45;;
74064;SDS011;62421;51.412;5.432;2023-04-23T03:04:59;37.95;;;20.00;;
74064;SDS011;62421;51.412;5.432;2023-04-23T03:07:24;39.83;;;21.83;;
74064;SDS011;62421;51.412;5.432;2023-04-23T03:09:50;40.50;;;22.67;;
74064;SDS011;62421;51.412;5.432;2023-04-23T03:12:15;35.37;;;19.80;;
74064;SDS011;62421;51.412;5.432;2023-04-23T03:14:42;35.30;;;20.33;;
74064;SDS011;62421;51.412;5.432;2023-04-23T03:17:07;39.23;;;21.03;;
74064;SDS011;62421;51.412;5.432;2023-04-23T03:19:32;38.07;;;21.80;;
74064;SDS011;62421;51.412;5.432;2023-04-23T03:21:58;36.87;;;21.67;;
74064;SDS011;62421;51.412;5.432;2023-04-23T03:24:23;37.07;;;20.50;;
74064;SDS011;62421;51.412;5.432;2023-04-23T03:26:50;39.33;;;21.73;;
74064;SDS011;62421;51.412;5.432;2023-04-23T03:29:15;36.60;;;20.70;;
74064;SDS011;62421;51.412;5.432;2023-04-23T03:31:40;40.67;;;21.50;;
74064;SDS011;62421;51.412;5.432;2023-04-23T03:34:06;40.43;;;22.43;;
74064;SDS011;62421;51.412;5.432;2023-04-23T03:36:31;43.93;;;23.37;;
74064;SDS011;62421;51.412;5.432;2023-04-23T03:38:56;40.42;;;20.98;;
74064;SDS011;62421;51.412;5.432;2023-04-23T03:41:22;37.92;;;21.05;;
74064;SDS011;62421;51.412;5.432;2023-04-23T03:43:47;35.20;;;20.93;;
74064;SDS011;62421;51.412;5.432;2023-04-23T03:46:13;42.00;;;22.57;;
74064;SDS011;62421;51.412;5.432;2023-04-23T03:48:38;38.40;;;20.93;;
74064;SDS011;62421;51.412;5.432;2023-04-23T03:51:04;35.90;;;20.75;;
74064;SDS011;62421;51.412;5.432;2023-04-23T03:53:30;35.17;;;20.33;;
74064;SDS011;62421;51.412;5.432;2023-04-23T03:55:56;35.90;;;20.40;;
74064;SDS011;62421;51.412;5.432;2023-04-23T03:58:21;35.27;;;19.43;;
74064;SDS011;62421;51.412;5.432;2023-04-23T04:00:46;35.97;;;20.37;;
74064;SDS011;62421;51.412;5.432;2023-04-23T04:03:12;34.20;;;20.40;;
74064;SDS011;62421;51.412;5.432;2023-04-23T04:05:37;35.03;;;19.10;;
74064;SDS011;62421;51.412;5.432;2023-04-23T04:08:02;30.97;;;19.07;;
74064;SDS011;62421;51.412;5.432;2023-04-23T04:10:29;30.38;;;18.45;;
74064;SDS011;62421;51.412;5.432;2023-04-23T04:12:54;31.85;;;19.17;;
74064;SDS011;62421;51.412;5.432;2023-04-23T04:15:20;33.23;;;18.70;;
74064;SDS011;62421;51.412;5.432;2023-04-23T04:17:46;32.07;;;18.33;;
74064;SDS011;62421;51.412;5.432;2023-04-23T04:20:11;32.28;;;17.80;;
74064;SDS011;62421;51.412;5.432;2023-04-23T04:22:37;33.20;;;18.23;;
74064;SDS011;62421;51.412;5.432;2023-04-23T04:25:03;31.42;;;18.40;;
74064;SDS011;62421;51.412;5.432;2023-04-23T04:27:29;32.78;;;19.27;;
74064;SDS011;62421;51.412;5.432;2023-04-23T04:29:57;32.43;;;18.53;;
74064;SDS011;62421;51.412;5.432;2023-04-23T04:32:23;30.15;;;17.52;;
74064;SDS011;62421;51.412;5.432;2023-04-23T04:34:48;32.93;;;18.83;;
74064;SDS011;62421;51.412;5.432;2023-04-23T04:37:14;33.47;;;18.33;;
74064;SDS011;62421;51.412;5.432;2023-04-23T04:39:40;28.87;;;17.27;;
74064;SDS011;62421;51.412;5.432;2023-04-23T04:42:06;34.70;;;17.85;;
74064;SDS011;62421;51.412;5.432;2023-04-23T04:44:32;31.33;;;18.37;;
74064;SDS011;62421;51.412;5.432;2023-04-23T04:46:57;32.53;;;17.90;;
74064;SDS011;62421;51.412;5.432;2023-04-23T04:49:22;37.77;;;18.30;;
74064;SDS011;62421;51.412;5.432;2023-04-23T04:51:48;29.87;;;17.30;;
74064;SDS011;62421;51.412;5.432;2023-04-23T04:54:13;32.40;;;18.00;;
74064;SDS011;62421;51.412;5.432;2023-04-23T04:56:38;31.20;;;17.83;;
74064;SDS011;62421;51.412;5.432;2023-04-23T04:59:04;28.87;;;17.47;;
74064;SDS011;62421;51.412;5.432;2023-04-23T05:01:29;33.03;;;18.08;;
74064;SDS011;62421;51.412;5.432;2023-04-23T05:03:56;33.33;;;17.83;;
74064;SDS011;62421;51.412;5.432;2023-04-23T05:06:23;34.50;;;19.02;;
74064;SDS011;62421;51.412;5.432;2023-04-23T05:08:48;36.00;;;19.83;;
74064;SDS011;62421;51.412;5.432;2023-04-23T05:11:17;37.67;;;19.77;;
74064;SDS011;62421;51.412;5.432;2023-04-23T05:13:46;37.93;;;19.60;;
74064;SDS011;62421;51.412;5.432;2023-04-23T05:16:12;37.80;;;20.33;;
74064;SDS011;62421;51.412;5.432;2023-04-23T05:18:38;38.15;;;19.58;;
74064;SDS011;62421;51.412;5.432;2023-04-23T05:21:04;32.77;;;18.70;;
74064;SDS011;62421;51.412;5.432;2023-04-23T05:23:30;36.22;;;19.30;;
74064;SDS011;62421;51.412;5.432;2023-04-23T05:25:55;35.73;;;20.37;;
74064;SDS011;62421;51.412;5.432;2023-04-23T05:28:22;37.20;;;19.75;;
74064;SDS011;62421;51.412;5.432;2023-04-23T05:30:48;37.15;;;19.42;;
74064;SDS011;62421;51.412;5.432;2023-04-23T05:33:14;33.67;;;18.77;;
74064;SDS011;62421;51.412;5.432;2023-04-23T05:35:40;31.20;;;18.02;;
74064;SDS011;62421;51.412;5.432;2023-04-23T05:38:05;33.50;;;18.93;;
74064;SDS011;62421;51.412;5.432;2023-04-23T05:40:31;31.63;;;19.03;;
74064;SDS011;62421;51.412;5.432;2023-04-23T05:42:59;31.88;;;18.35;;
74064;SDS011;62421;51.412;5.432;2023-04-23T05:45:25;29.85;;;17.63;;
74064;SDS011;62421;51.412;5.432;2023-04-23T05:47:50;29.47;;;17.43;;
74064;SDS011;62421;51.412;5.432;2023-04-23T05:50:16;31.00;;;17.03;;
74064;SDS011;62421;51.412;5.432;2023-04-23T05:52:42;29.65;;;16.65;;
74064;SDS011;62421;51.412;5.432;2023-04-23T05:55:08;27.50;;;17.23;;
74064;SDS011;62421;51.412;5.432;2023-04-23T05:57:34;30.30;;;16.23;;
74064;SDS011;62421;51.412;5.432;2023-04-23T06:00:00;30.75;;;16.52;;
74064;SDS011;62421;51.412;5.432;2023-04-23T06:02:25;27.80;;;16.70;;
74064;SDS011;62421;51.412;5.432;2023-04-23T06:04:53;27.13;;;16.40;;
74064;SDS011;62421;51.412;5.432;2023-04-23T06:07:18;25.47;;;15.90;;
74064;SDS011;62421;51.412;5.432;2023-04-23T06:09:44;29.73;;;15.68;;
74064;SDS011;62421;51.412;5.432;2023-04-23T06:12:10;31.37;;;16.00;;
74064;SDS011;62421;51.412;5.432;2023-04-23T06:14:35;26.20;;;16.08;;
74064;SDS011;62421;51.412;5.432;2023-04-23T06:17:01;30.27;;;16.37;;
74064;SDS011;62421;51.412;5.432;2023-04-23T06:19:26;27.70;;;15.67;;
74064;SDS011;62421;51.412;5.432;2023-04-23T06:21:52;26.00;;;16.00;;
74064;SDS011;62421;51.412;5.432;2023-04-23T06:24:17;26.95;;;14.85;;
74064;SDS011;62421;51.412;5.432;2023-04-23T06:26:43;26.87;;;15.43;;
74064;SDS011;62421;51.412;5.432;2023-04-23T06:29:08;26.50;;;15.17;;
74064;SDS011;62421;51.412;5.432;2023-04-23T06:31:34;39.58;;;16.63;;
74064;SDS011;62421;51.412;5.432;2023-04-23T06:34:00;29.27;;;15.40;;
74064;SDS011;62421;51.412;5.432;2023-04-23T06:36:25;30.67;;;15.43;;
74064;SDS011;62421;51.412;5.432;2023-04-23T06:38:51;21.73;;;13.70;;
74064;SDS011;62421;51.412;5.432;2023-04-23T06:41:16;29.80;;;14.30;;
74064;SDS011;62421;51.412;5.432;2023-04-23T06:43:42;25.10;;;15.10;;
74064;SDS011;62421;51.412;5.432;2023-04-23T06:46:07;29.83;;;15.33;;
74064;SDS011;62421;51.412;5.432;2023-04-23T06:48:32;29.90;;;14.73;;
74064;SDS011;62421;51.412;5.432;2023-04-23T06:50:58;25.17;;;14.75;;
74064;SDS011;62421;51.412;5.432;2023-04-23T06:53:23;26.27;;;13.25;;
74064;SDS011;62421;51.412;5.432;2023-04-23T06:55:49;21.67;;;12.90;;
74064;SDS011;62421;51.412;5.432;2023-04-23T06:58:15;22.98;;;13.30;;
74064;SDS011;62421;51.412;5.432;2023-04-23T07:00:41;25.10;;;12.77;;
74064;SDS011;62421;51.412;5.432;2023-04-23T07:03:06;22.73;;;12.32;;
74064;SDS011;62421;51.412;5.432;2023-04-23T07:05:32;22.45;;;11.77;;
74064;SDS011;62421;51.412;5.432;2023-04-23T07:07:57;20.97;;;11.57;;
74064;SDS011;62421;51.412;5.432;2023-04-23T07:10:23;24.13;;;12.10;;
74064;SDS011;62421;51.412;5.432;2023-04-23T07:12:49;20.55;;;10.45;;
74064;SDS011;62421;51.412;5.432;2023-04-23T07:15:15;20.57;;;11.40;;
74064;SDS011;62421;51.412;5.432;2023-04-23T07:17:40;22.67;;;10.43;;
74064;SDS011;62421;51.412;5.432;2023-04-23T07:20:06;19.07;;;9.77;;
74064;SDS011;62421;51.412;5.432;2023-04-23T07:22:33;16.50;;;9.57;;
74064;SDS011;62421;51.412;5.432;2023-04-23T07:24:59;17.98;;;10.65;;
74064;SDS011;62421;51.412;5.432;2023-04-23T07:27:24;18.75;;;8.68;;
74064;SDS011;62421;51.412;5.432;2023-04-23T07:29:50;26.20;;;10.40;;
74064;SDS011;62421;51.412;5.432;2023-04-23T07:32:16;18.47;;;8.87;;
74064;SDS011;62421;51.412;5.432;2023-04-23T07:34:42;20.70;;;8.60;;
74064;SDS011;62421;51.412;5.432;2023-04-23T07:37:07;17.00;;;7.23;;
74064;SDS011;62421;51.412;5.432;2023-04-23T07:39:32;20.70;;;7.37;;
74064;SDS011;62421;51.412;5.432;2023-04-23T07:41:58;17.70;;;7.32;;
74064;SDS011;62421;51.412;5.432;2023-04-23T07:44:25;15.15;;;6.15;;
74064;SDS011;62421;51.412;5.432;2023-04-23T07:46:51;16.00;;;6.03;;
74064;SDS011;62421;51.412;5.432;2023-04-23T07:49:17;17.47;;;6.60;;
74064;SDS011;62421;51.412;5.432;2023-04-23T07:51:42;11.05;;;5.50;;
74064;SDS011;62421;51.412;5.432;2023-04-23T07:54:08;14.50;;;5.50;;
74064;SDS011;62421;51.412;5.432;2023-04-23T07:56:33;13.23;;;5.43;;
74064;SDS011;62421;51.412;5.432;2023-04-23T07:59:00;13.00;;;5.60;;
74064;SDS011;62421;51.412;5.432;2023-04-23T08:01:26;11.57;;;4.55;;
74064;SDS011;62421;51.412;5.432;2023-04-23T08:03:52;16.38;;;5.20;;
74064;SDS011;62421;51.412;5.432;2023-04-23T08:06:20;13.80;;;4.53;;
74064;SDS011;62421;51.412;5.432;2023-04-23T08:08:47;14.38;;;4.57;;
74064;SDS011;62421;51.412;5.432;2023-04-23T08:11:12;10.70;;;4.40;;
74064;SDS011;62421;51.412;5.432;2023-04-23T08:13:38;11.68;;;3.97;;
74064;SDS011;62421;51.412;5.432;2023-04-23T08:16:03;17.97;;;5.10;;
74064;SDS011;62421;51.412;5.432;2023-04-23T08:18:29;13.83;;;4.10;;
74064;SDS011;62421;51.412;5.432;2023-04-23T08:20:54;9.80;;;3.70;;
74064;SDS011;62421;51.412;5.432;2023-04-23T08:23:20;11.63;;;4.25;;
74064;SDS011;62421;51.412;5.432;2023-04-23T08:25:46;18.37;;;3.57;;
74064;SDS011;62421;51.412;5.432;2023-04-23T08:28:11;13.07;;;3.33;;
74064;SDS011;62421;51.412;5.432;2023-04-23T08:30:37;12.97;;;3.30;;
74064;SDS011;62421;51.412;5.432;2023-04-23T08:33:02;16.58;;;3.88;;
74064;SDS011;62421;51.412;5.432;2023-04-23T08:35:28;9.07;;;3.27;;
74064;SDS011;62421;51.412;5.432;2023-04-23T08:37:53;10.65;;;3.35;;
74064;SDS011;62421;51.412;5.432;2023-04-23T08:40:19;15.63;;;3.38;;
74064;SDS011;62421;51.412;5.432;2023-04-23T08:42:49;15.63;;;4.72;;
74064;SDS011;62421;51.412;5.432;2023-04-23T08:45:20;12.18;;;3.22;;
74064;SDS011;62421;51.412;5.432;2023-04-23T08:47:46;14.38;;;2.72;;
74064;SDS011;62421;51.412;5.432;2023-04-23T08:50:12;13.37;;;3.63;;
74064;SDS011;62421;51.412;5.432;2023-04-23T08:52:39;14.98;;;3.10;;
74064;SDS011;62421;51.412;5.432;2023-04-23T08:55:07;7.82;;;2.45;;
74064;SDS011;62421;51.412;5.432;2023-04-23T08:57:38;11.88;;;2.28;;
74064;SDS011;62421;51.412;5.432;2023-04-23T09:00:06;13.90;;;3.03;;
74064;SDS011;62421;51.412;5.432;2023-04-23T09:02:39;13.50;;;2.38;;
74064;SDS011;62421;51.412;5.432;2023-04-23T09:05:05;10.25;;;2.58;;
74064;SDS011;62421;51.412;5.432;2023-04-23T09:07:32;7.38;;;2.50;;
74064;SDS011;62421;51.412;5.432;2023-04-23T09:09:59;9.52;;;1.88;;
74064;SDS011;62421;51.412;5.432;2023-04-23T09:12:25;9.60;;;2.93;;
74064;SDS011;62421;51.412;5.432;2023-04-23T09:14:50;8.32;;;2.80;;
74064;SDS011;62421;51.412;5.432;2023-04-23T09:17:19;10.03;;;2.57;;
74064;SDS011;62421;51.412;5.432;2023-04-23T09:19:46;7.65;;;2.47;;
74064;SDS011;62421;51.412;5.432;2023-04-23T09:22:14;5.63;;;2.28;;
74064;SDS011;62421;51.412;5.432;2023-04-23T09:24:41;13.60;;;3.22;;
74064;SDS011;62421;51.412;5.432;2023-04-23T09:27:09;10.47;;;2.30;;
74064;SDS011;62421;51.412;5.432;2023-04-23T09:29:35;10.70;;;1.90;;
74064;SDS011;62421;51.412;5.432;2023-04-23T09:32:07;9.73;;;2.37;;
74064;SDS011;62421;51.412;5.432;2023-04-23T09:34:34;10.48;;;1.58;;
74064;SDS011;62421;51.412;5.432;2023-04-23T09:37:01;10.13;;;2.35;;
74064;SDS011;62421;51.412;5.432;2023-04-23T09:39:27;14.13;;;2.60;;
74064;SDS011;62421;51.412;5.432;2023-04-23T09:41:53;9.73;;;1.55;;
74064;SDS011;62421;51.412;5.432;2023-04-23T09:44:19;10.33;;;2.20;;
74064;SDS011;62421;51.412;5.432;2023-04-23T09:46:50;6.18;;;2.13;;
74064;SDS011;62421;51.412;5.432;2023-04-23T09:49:15;8.10;;;2.13;;
74064;SDS011;62421;51.412;5.432;2023-04-23T09:51:42;8.15;;;1.65;;
74064;SDS011;62421;51.412;5.432;2023-04-23T09:54:17;10.35;;;2.00;;
74064;SDS011;62421;51.412;5.432;2023-04-23T09:56:48;9.35;;;2.05;;
74064;SDS011;62421;51.412;5.432;2023-04-23T09:59:33;8.27;;;1.77;;
74064;SDS011;62421;51.412;5.432;2023-04-23T10:02:03;9.40;;;2.55;;
74064;SDS011;62421;51.412;5.432;2023-04-23T10:04:30;6.50;;;2.00;;
74064;SDS011;62421;51.412;5.432;2023-04-23T10:06:57;7.32;;;2.25;;
74064;SDS011;62421;51.412;5.432;2023-04-23T10:09:29;8.68;;;2.45;;
74064;SDS011;62421;51.412;5.432;2023-04-23T10:11:58;10.97;;;2.23;;
74064;SDS011;62421;51.412;5.432;2023-04-23T10:14:26;7.72;;;2.13;;
74064;SDS011;62421;51.412;5.432;2023-04-23T10:16:56;9.50;;;2.13;;
74064;SDS011;62421;51.412;5.432;2023-04-23T10:19:26;8.50;;;2.00;;
74064;SDS011;62421;51.412;5.432;2023-04-23T10:21:56;7.88;;;2.08;;
74064;SDS011;62421;51.412;5.432;2023-04-23T10:24:32;8.47;;;1.37;;
74064;SDS011;62421;51.412;5.432;2023-04-23T10:27:02;7.72;;;2.10;;
74064;SDS011;62421;51.412;5.432;2023-04-23T10:29:32;9.55;;;2.65;;
74064;SDS011;62421;51.412;5.432;2023-04-23T10:32:00;7.20;;;1.98;;
74064;SDS011;62421;51.412;5.432;2023-04-23T10:34:27;11.35;;;2.63;;
74064;SDS011;62421;51.412;5.432;2023-04-23T10:36:54;7.60;;;2.37;;
74064;SDS011;62421;51.412;5.432;2023-04-23T10:39:21;7.60;;;2.00;;
74064;SDS011;62421;51.412;5.432;2023-04-23T10:41:48;7.65;;;2.20;;
74064;SDS011;62421;51.412;5.432;2023-04-23T10:44:18;7.80;;;2.38;;
74064;SDS011;62421;51.412;5.432;2023-04-23T10:46:52;5.53;;;2.33;;
74064;SDS011;62421;51.412;5.432;2023-04-23T10:49:21;9.20;;;1.53;;
74064;SDS011;62421;51.412;5.432;2023-04-23T10:51:48;8.35;;;2.13;;
74064;SDS011;62421;51.412;5.432;2023-04-23T10:54:21;6.25;;;1.88;;
74064;SDS011;62421;51.412;5.432;2023-04-23T10:56:56;10.00;;;2.50;;
74064;SDS011;62421;51.412;5.432;2023-04-23T10:59:23;6.30;;;2.20;;
74064;SDS011;62421;51.412;5.432;2023-04-23T11:01:49;10.20;;;1.80;;
74064;SDS011;62421;51.412;5.432;2023-04-23T11:04:21;13.17;;;2.47;;
74064;SDS011;62421;51.412;5.432;2023-04-23T11:14:47;8.95;;;2.20;;
74064;SDS011;62421;51.412;5.432;2023-04-23T11:17:15;5.90;;;1.90;;
74064;SDS011;62421;51.412;5.432;2023-04-23T11:20:03;7.80;;;1.92;;
74064;SDS011;62421;51.412;5.432;2023-04-23T11:22:38;7.35;;;1.60;;
74064;SDS011;62421;51.412;5.432;2023-04-23T11:25:09;13.20;;;2.05;;
74064;SDS011;62421;51.412;5.432;2023-04-23T11:27:39;5.75;;;1.30;;
74064;SDS011;62421;51.412;5.432;2023-04-23T11:30:16;6.03;;;1.60;;
74064;SDS011;62421;51.412;5.432;2023-04-23T11:32:48;7.70;;;1.67;;
74064;SDS011;62421;51.412;5.432;2023-04-23T11:35:16;4.10;;;1.67;;
74064;SDS011;62421;51.412;5.432;2023-04-23T11:37:43;7.70;;;1.60;;
74064;SDS011;62421;51.412;5.432;2023-04-23T11:40:13;6.55;;;1.50;;
74064;SDS011;62421;51.412;5.432;2023-04-23T11:42:46;7.37;;;2.17;;
74064;SDS011;62421;51.412;5.432;2023-04-23T11:47:47;8.55;;;1.85;;
74064;SDS011;62421;51.412;5.432;2023-04-23T11:50:18;9.93;;;1.98;;
74064;SDS011;62421;51.412;5.432;2023-04-23T11:52:49;5.72;;;1.10;;
74064;SDS011;62421;51.412;5.432;2023-04-23T11:55:15;7.83;;;1.40;;
74064;SDS011;62421;51.412;5.432;2023-04-23T11:57:42;9.88;;;1.45;;
74064;SDS011;62421;51.412;5.432;2023-04-23T12:00:21;8.68;;;1.85;;
74064;SDS011;62421;51.412;5.432;2023-04-23T12:02:54;6.90;;;1.63;;
74064;SDS011;62421;51.412;5.432;2023-04-23T12:05:28;5.23;;;1.40;;
74064;SDS011;62421;51.412;5.432;2023-04-23T12:08:09;8.70;;;1.85;;
74064;SDS011;62421;51.412;5.432;2023-04-23T12:10:47;6.53;;;2.00;;
74064;SDS011;62421;51.412;5.432;2023-04-23T12:13:15;8.00;;;1.63;;
74064;SDS011;62421;51.412;5.432;2023-04-23T12:15:48;8.95;;;1.35;;
74064;SDS011;62421;51.412;5.432;2023-04-23T12:18:40;6.50;;;1.47;;
74064;SDS011;62421;51.412;5.432;2023-04-23T12:21:11;7.93;;;1.58;;
74064;SDS011;62421;51.412;5.432;2023-04-23T12:23:39;9.07;;;1.80;;
74064;SDS011;62421;51.412;5.432;2023-04-23T12:26:11;5.43;;;1.60;;
74064;SDS011;62421;51.412;5.432;2023-04-23T12:29:12;11.85;;;1.92;;
74064;SDS011;62421;51.412;5.432;2023-04-23T12:31:31;5.20;;;1.23;;
74064;SDS011;62421;51.412;5.432;2023-04-23T12:34:03;6.45;;;1.80;;
74064;SDS011;62421;51.412;5.432;2023-04-23T12:36:30;5.30;;;2.27;;
74064;SDS011;62421;51.412;5.432;2023-04-23T12:41:47;5.72;;;2.03;;
74064;SDS011;62421;51.412;5.432;2023-04-23T12:44:14;6.10;;;1.88;;
74064;SDS011;62421;51.412;5.432;2023-04-23T12:46:40;4.40;;;1.67;;
74064;SDS011;62421;51.412;5.432;2023-04-23T12:49:05;8.50;;;2.13;;
74064;SDS011;62421;51.412;5.432;2023-04-23T12:51:31;7.43;;;1.73;;
74064;SDS011;62421;51.412;5.432;2023-04-23T12:53:56;4.63;;;1.17;;
74064;SDS011;62421;51.412;5.432;2023-04-23T12:56:21;8.05;;;1.33;;
74064;SDS011;62421;51.412;5.432;2023-04-23T12:58:47;7.17;;;1.93;;
74064;SDS011;62421;51.412;5.432;2023-04-23T13:01:12;6.60;;;1.40;;
74064;SDS011;62421;51.412;5.432;2023-04-23T13:03:38;5.80;;;1.33;;
74064;SDS011;62421;51.412;5.432;2023-04-23T13:06:04;4.60;;;1.20;;
74064;SDS011;62421;51.412;5.432;2023-04-23T13:08:32;9.43;;;2.00;;
74064;SDS011;62421;51.412;5.432;2023-04-23T13:10:57;6.73;;;1.70;;
74064;SDS011;62421;51.412;5.432;2023-04-23T13:13:23;4.88;;;1.23;;
74064;SDS011;62421;51.412;5.432;2023-04-23T13:15:48;6.33;;;1.77;;
74064;SDS011;62421;51.412;5.432;2023-04-23T13:18:14;7.33;;;1.20;;
74064;SDS011;62421;51.412;5.432;2023-04-23T13:20:39;11.80;;;1.60;;
74064;SDS011;62421;51.412;5.432;2023-04-23T13:23:05;6.40;;;1.90;;
74064;SDS011;62421;51.412;5.432;2023-04-23T13:25:32;7.25;;;1.70;;
74064;SDS011;62421;51.412;5.432;2023-04-23T13:27:58;7.80;;;1.90;;
74064;SDS011;62421;51.412;5.432;2023-04-23T13:30:23;7.73;;;1.80;;
74064;SDS011;62421;51.412;5.432;2023-04-23T13:32:49;5.43;;;1.43;;
74064;SDS011;62421;51.412;5.432;2023-04-23T13:35:14;5.87;;;1.10;;
74064;SDS011;62421;51.412;5.432;2023-04-23T13:37:41;6.55;;;1.42;;
74064;SDS011;62421;51.412;5.432;2023-04-23T13:40:06;5.93;;;1.40;;
74064;SDS011;62421;51.412;5.432;2023-04-23T13:42:32;6.05;;;2.05;;
74064;SDS011;62421;51.412;5.432;2023-04-23T13:44:58;6.80;;;1.53;;
74064;SDS011;62421;51.412;5.432;2023-04-23T13:47:23;5.35;;;1.27;;
74064;SDS011;62421;51.412;5.432;2023-04-23T13:49:50;4.80;;;1.50;;
74064;SDS011;62421;51.412;5.432;2023-04-23T13:52:15;5.43;;;1.73;;
74064;SDS011;62421;51.412;5.432;2023-04-23T13:54:41;9.57;;;1.60;;
74064;SDS011;62421;51.412;5.432;2023-04-23T13:57:06;4.23;;;1.60;;
74064;SDS011;62421;51.412;5.432;2023-04-23T13:59:32;9.10;;;1.40;;
74064;SDS011;62421;51.412;5.432;2023-04-23T14:01:57;7.63;;;1.70;;
74064;SDS011;62421;51.412;5.432;2023-04-23T14:04:23;5.73;;;1.50;;
74064;SDS011;62421;51.412;5.432;2023-04-23T14:06:48;5.50;;;1.57;;
74064;SDS011;62421;51.412;5.432;2023-04-23T14:09:14;5.50;;;1.60;;
74064;SDS011;62421;51.412;5.432;2023-04-23T14:11:39;6.07;;;1.40;;
74064;SDS011;62421;51.412;5.432;2023-04-23T14:14:05;5.72;;;1.42;;
74064;SDS011;62421;51.412;5.432;2023-04-23T14:16:31;7.68;;;1.92;;
74064;SDS011;62421;51.412;5.432;2023-04-23T14:18:57;6.07;;;1.75;;
74064;SDS011;62421;51.412;5.432;2023-04-23T14:21:22;6.57;;;1.88;;
74064;SDS011;62421;51.412;5.432;2023-04-23T14:23:54;8.27;;;1.40;;
74064;SDS011;62421;51.412;5.432;2023-04-23T14:26:33;7.30;;;1.80;;
74064;SDS011;62421;51.412;5.432;2023-04-23T14:29:09;8.60;;;1.98;;
74064;SDS011;62421;51.412;5.432;2023-04-23T14:31:41;10.43;;;2.33;;
74064;SDS011;62421;51.412;5.432;2023-04-23T14:34:06;5.03;;;1.60;;
74064;SDS011;62421;51.412;5.432;2023-04-23T14:36:32;5.88;;;1.90;;
74064;SDS011;62421;51.412;5.432;2023-04-23T14:38:57;6.78;;;2.30;;
74064;SDS011;62421;51.412;5.432;2023-04-23T14:41:28;8.67;;;2.13;;
74064;SDS011;62421;51.412;5.432;2023-04-23T14:43:54;6.70;;;1.60;;
74064;SDS011;62421;51.412;5.432;2023-04-23T14:46:19;6.67;;;2.20;;